sensor_id;sensor_type;location;lat;lon;timestamp;temperature;humidity
12049;DHT22;6085;49.452;8.502;2022-11-10T00:03:03;9.60;99.90
12049;DHT22;6085;49.452;8.502;2022-11-10T00:07:07;9.70;99.90
12049;DHT22;6085;49.452;8.502;2022-11-10T00:11:09;9.60;99.90
12049;DHT22;6085;49.452;8.502;2022-11-10T00:15:11;9.40;99.90
12049;DHT22;6085;49.452;8.502;2022-11-10T00:19:31;9.20;99.90
12049;DHT22;6085;49.452;8.502;2022-11-10T00:23:35;9.00;99.90
12049;DHT22;6085;49.452;8.502;2022-11-10T00:27:37;9.00;99.90
12049;DHT22;6085;49.452;8.502;2022-11-10T00:31:39;9.00;99.90
12049;DHT22;6085;49.452;8.502;2022-11-10T00:35:41;9.00;99.90
12049;DHT22;6085;49.452;8.502;2022-11-10T00:39:45;9.20;99.90
12049;DHT22;6085;49.452;8.502;2022-11-10T00:43:47;9.40;99.90
12049;DHT22;6085;49.452;8.502;2022-11-10T00:47:49;9.40;99.90
12049;DHT22;6085;49.452;8.502;2022-11-10T00:51:51;9.40;99.90
12049;DHT22;6085;49.452;8.502;2022-11-10T00:55:54;9.50;99.90
12049;DHT22;6085;49.452;8.502;2022-11-10T00:59:56;9.50;99.90
12049;DHT22;6085;49.452;8.502;2022-11-10T01:03:58;9.50;99.90
12049;DHT22;6085;49.452;8.502;2022-11-10T01:07:59;9.50;99.90
12049;DHT22;6085;49.452;8.502;2022-11-10T01:12:03;9.40;99.90
12049;DHT22;6085;49.452;8.502;2022-11-10T01:16:06;9.30;99.90
12049;DHT22;6085;49.452;8.502;2022-11-10T01:20:09;9.20;99.90
12049;DHT22;6085;49.452;8.502;2022-11-10T01:24:11;9.30;99.90
12049;DHT22;6085;49.452;8.502;2022-11-10T01:28:14;9.40;99.90
12049;DHT22;6085;49.452;8.502;2022-11-10T01:32:16;9.40;99.90
12049;DHT22;6085;49.452;8.502;2022-11-10T01:36:18;9.40;99.90
12049;DHT22;6085;49.452;8.502;2022-11-10T01:40:20;9.20;99.90
12049;DHT22;6085;49.452;8.502;2022-11-10T01:44:24;9.00;99.90
12049;DHT22;6085;49.452;8.502;2022-11-10T01:48:30;9.00;99.90
12049;DHT22;6085;49.452;8.502;2022-11-10T01:52:33;9.10;99.90
12049;DHT22;6085;49.452;8.502;2022-11-10T01:56:38;9.10;99.90
12049;DHT22;6085;49.452;8.502;2022-11-10T02:00:44;9.10;99.90
12049;DHT22;6085;49.452;8.502;2022-11-10T02:04:46;9.00;99.90
12049;DHT22;6085;49.452;8.502;2022-11-10T02:08:50;8.80;99.90
12049;DHT22;6085;49.452;8.502;2022-11-10T02:12:52;8.60;99.90
12049;DHT22;6085;49.452;8.502;2022-11-10T02:16:56;8.50;99.90
12049;DHT22;6085;49.452;8.502;2022-11-10T02:21:02;8.30;99.90
12049;DHT22;6085;49.452;8.502;2022-11-10T02:25:05;8.20;99.90
12049;DHT22;6085;49.452;8.502;2022-11-10T02:29:07;8.10;99.90
12049;DHT22;6085;49.452;8.502;2022-11-10T02:33:09;7.90;99.90
12049;DHT22;6085;49.452;8.502;2022-11-10T02:37:12;7.90;99.90
12049;DHT22;6085;49.452;8.502;2022-11-10T02:41:14;8.00;99.90
12049;DHT22;6085;49.452;8.502;2022-11-10T02:45:16;8.00;99.90
12049;DHT22;6085;49.452;8.502;2022-11-10T02:49:18;7.90;99.90
12049;DHT22;6085;49.452;8.502;2022-11-10T02:53:21;7.80;99.90
12049;DHT22;6085;49.452;8.502;2022-11-10T02:57:23;7.70;99.90
12049;DHT22;6085;49.452;8.502;2022-11-10T03:01:25;7.70;99.90
12049;DHT22;6085;49.452;8.502;2022-11-10T03:05:27;7.70;99.90
12049;DHT22;6085;49.452;8.502;2022-11-10T03:09:31;7.70;99.90
12049;DHT22;6085;49.452;8.502;2022-11-10T03:13:33;7.60;99.90
12049;DHT22;6085;49.452;8.502;2022-11-10T03:17:34;7.50;99.90
12049;DHT22;6085;49.452;8.502;2022-11-10T03:21:36;7.40;99.90
12049;DHT22;6085;49.452;8.502;2022-11-10T03:25:39;7.30;99.90
12049;DHT22;6085;49.452;8.502;2022-11-10T03:29:41;7.30;99.90
12049;DHT22;6085;49.452;8.502;2022-11-10T03:33:43;7.70;99.90
12049;DHT22;6085;49.452;8.502;2022-11-10T03:37:45;8.10;99.90
12049;DHT22;6085;49.452;8.502;2022-11-10T03:41:48;8.30;99.90
12049;DHT22;6085;49.452;8.502;2022-11-10T03:45:50;8.40;99.90
12049;DHT22;6085;49.452;8.502;2022-11-10T03:49:52;8.40;99.90
12049;DHT22;6085;49.452;8.502;2022-11-10T03:53:54;8.30;99.90
12049;DHT22;6085;49.452;8.502;2022-11-10T03:58:00;8.30;99.90
12049;DHT22;6085;49.452;8.502;2022-11-10T04:02:02;8.40;99.90
12049;DHT22;6085;49.452;8.502;2022-11-10T04:06:04;8.30;99.90
12049;DHT22;6085;49.452;8.502;2022-11-10T04:10:24;8.10;99.90
12049;DHT22;6085;49.452;8.502;2022-11-10T04:14:27;7.80;99.90
12049;DHT22;6085;49.452;8.502;2022-11-10T04:18:46;7.60;99.90
12049;DHT22;6085;49.452;8.502;2022-11-10T04:22:48;7.40;99.90
12049;DHT22;6085;49.452;8.502;2022-11-10T04:27:22;7.40;99.90
12049;DHT22;6085;49.452;8.502;2022-11-10T04:31:26;7.60;99.90
12049;DHT22;6085;49.452;8.502;2022-11-10T04:35:29;7.40;99.90
12049;DHT22;6085;49.452;8.502;2022-11-10T04:39:30;7.30;99.90
12049;DHT22;6085;49.452;8.502;2022-11-10T04:43:32;7.20;99.90
12049;DHT22;6085;49.452;8.502;2022-11-10T04:47:35;7.10;99.90
12049;DHT22;6085;49.452;8.502;2022-11-10T04:51:38;7.20;99.90
12049;DHT22;6085;49.452;8.502;2022-11-10T04:55:43;7.40;99.90
12049;DHT22;6085;49.452;8.502;2022-11-10T04:59:45;7.40;99.90
12049;DHT22;6085;49.452;8.502;2022-11-10T05:03:49;7.30;99.90
12049;DHT22;6085;49.452;8.502;2022-11-10T05:07:51;7.20;99.90
12049;DHT22;6085;49.452;8.502;2022-11-10T05:11:53;7.10;99.90
12049;DHT22;6085;49.452;8.502;2022-11-10T05:15:55;7.10;99.90
12049;DHT22;6085;49.452;8.502;2022-11-10T05:19:58;7.00;99.90
12049;DHT22;6085;49.452;8.502;2022-11-10T05:24:00;6.90;99.90
12049;DHT22;6085;49.452;8.502;2022-11-10T05:28:03;6.90;99.90
12049;DHT22;6085;49.452;8.502;2022-11-10T05:32:05;6.80;99.90
12049;DHT22;6085;49.452;8.502;2022-11-10T05:36:09;6.70;99.90
12049;DHT22;6085;49.452;8.502;2022-11-10T05:40:11;6.60;99.90
12049;DHT22;6085;49.452;8.502;2022-11-10T05:44:13;6.60;99.90
12049;DHT22;6085;49.452;8.502;2022-11-10T05:48:15;6.50;99.90
12049;DHT22;6085;49.452;8.502;2022-11-10T05:52:18;6.50;99.90
12049;DHT22;6085;49.452;8.502;2022-11-10T05:56:20;6.50;99.90
12049;DHT22;6085;49.452;8.502;2022-11-10T06:00:24;6.50;99.90
12049;DHT22;6085;49.452;8.502;2022-11-10T06:04:26;6.40;99.90
12049;DHT22;6085;49.452;8.502;2022-11-10T06:08:29;6.40;99.90
12049;DHT22;6085;49.452;8.502;2022-11-10T06:12:31;6.40;99.90
12049;DHT22;6085;49.452;8.502;2022-11-10T06:16:33;6.40;99.90
12049;DHT22;6085;49.452;8.502;2022-11-10T06:20:35;6.30;99.90
12049;DHT22;6085;49.452;8.502;2022-11-10T06:24:38;6.30;99.90
12049;DHT22;6085;49.452;8.502;2022-11-10T06:28:40;6.30;99.90
12049;DHT22;6085;49.452;8.502;2022-11-10T06:32:42;6.20;99.90
12049;DHT22;6085;49.452;8.502;2022-11-10T06:36:44;6.20;99.90
12049;DHT22;6085;49.452;8.502;2022-11-10T06:40:47;6.20;99.90
12049;DHT22;6085;49.452;8.502;2022-11-10T06:44:49;6.20;99.90
12049;DHT22;6085;49.452;8.502;2022-11-10T06:48:51;6.20;99.90
12049;DHT22;6085;49.452;8.502;2022-11-10T06:52:53;6.10;99.90
12049;DHT22;6085;49.452;8.502;2022-11-10T06:56:57;6.20;99.90
12049;DHT22;6085;49.452;8.502;2022-11-10T07:00:58;6.20;99.90
12049;DHT22;6085;49.452;8.502;2022-11-10T07:05:00;6.30;99.90
12049;DHT22;6085;49.452;8.502;2022-11-10T07:09:02;6.30;99.90
12049;DHT22;6085;49.452;8.502;2022-11-10T07:13:06;6.30;99.90
12049;DHT22;6085;49.452;8.502;2022-11-10T07:17:08;6.40;99.90
12049;DHT22;6085;49.452;8.502;2022-11-10T07:21:10;6.50;99.90
12049;DHT22;6085;49.452;8.502;2022-11-10T07:25:12;6.70;99.90
12049;DHT22;6085;49.452;8.502;2022-11-10T07:29:15;6.90;99.90
12049;DHT22;6085;49.452;8.502;2022-11-10T07:33:17;7.20;99.90
12049;DHT22;6085;49.452;8.502;2022-11-10T07:37:19;7.40;99.90
12049;DHT22;6085;49.452;8.502;2022-11-10T07:41:21;7.70;99.90
12049;DHT22;6085;49.452;8.502;2022-11-10T07:45:24;8.00;99.90
12049;DHT22;6085;49.452;8.502;2022-11-10T07:49:26;8.40;99.90
12049;DHT22;6085;49.452;8.502;2022-11-10T07:53:28;8.60;99.90
12049;DHT22;6085;49.452;8.502;2022-11-10T07:57:31;8.70;99.90
12049;DHT22;6085;49.452;8.502;2022-11-10T08:01:34;8.90;99.90
12049;DHT22;6085;49.452;8.502;2022-11-10T08:05:36;9.00;99.90
12049;DHT22;6085;49.452;8.502;2022-11-10T08:09:38;9.10;99.90
12049;DHT22;6085;49.452;8.502;2022-11-10T08:13:40;9.40;99.90
12049;DHT22;6085;49.452;8.502;2022-11-10T08:17:44;9.70;99.90
12049;DHT22;6085;49.452;8.502;2022-11-10T08:21:45;10.10;99.90
12049;DHT22;6085;49.452;8.502;2022-11-10T08:25:47;10.40;99.90
12049;DHT22;6085;49.452;8.502;2022-11-10T08:29:52;10.60;99.90
12049;DHT22;6085;49.452;8.502;2022-11-10T08:33:55;10.90;99.90
12049;DHT22;6085;49.452;8.502;2022-11-10T08:37:57;11.60;99.90
12049;DHT22;6085;49.452;8.502;2022-11-10T08:41:59;12.60;99.90
12049;DHT22;6085;49.452;8.502;2022-11-10T08:46:01;12.90;99.90
12049;DHT22;6085;49.452;8.502;2022-11-10T08:50:04;13.30;99.90
12049;DHT22;6085;49.452;8.502;2022-11-10T08:54:07;13.70;99.90
12049;DHT22;6085;49.452;8.502;2022-11-10T08:58:11;13.90;99.90
12049;DHT22;6085;49.452;8.502;2022-11-10T09:02:13;13.70;99.90
12049;DHT22;6085;49.452;8.502;2022-11-10T09:06:16;13.50;99.90
12049;DHT22;6085;49.452;8.502;2022-11-10T09:10:18;12.90;99.90
12049;DHT22;6085;49.452;8.502;2022-11-10T09:14:20;12.60;99.90
12049;DHT22;6085;49.452;8.502;2022-11-10T09:18:21;12.40;99.90
12049;DHT22;6085;49.452;8.502;2022-11-10T09:22:27;12.20;99.90
12049;DHT22;6085;49.452;8.502;2022-11-10T09:26:29;12.10;99.90
12049;DHT22;6085;49.452;8.502;2022-11-10T09:30:31;12.10;99.90
12049;DHT22;6085;49.452;8.502;2022-11-10T09:34:33;12.20;99.90
12049;DHT22;6085;49.452;8.502;2022-11-10T09:38:36;12.30;99.90
12049;DHT22;6085;49.452;8.502;2022-11-10T09:42:39;12.50;99.90
12049;DHT22;6085;49.452;8.502;2022-11-10T09:46:44;12.70;99.90
12049;DHT22;6085;49.452;8.502;2022-11-10T09:50:49;12.80;99.90
12049;DHT22;6085;49.452;8.502;2022-11-10T09:54:58;12.80;99.90
12049;DHT22;6085;49.452;8.502;2022-11-10T09:59:15;12.80;99.90
12049;DHT22;6085;49.452;8.502;2022-11-10T10:03:23;12.80;99.90
12049;DHT22;6085;49.452;8.502;2022-11-10T10:07:33;12.80;99.90
12049;DHT22;6085;49.452;8.502;2022-11-10T10:11:46;12.80;99.90
12049;DHT22;6085;49.452;8.502;2022-11-10T10:16:02;13.00;99.90
12049;DHT22;6085;49.452;8.502;2022-11-10T10:20:12;13.20;99.90
12049;DHT22;6085;49.452;8.502;2022-11-10T10:24:20;13.20;99.90
12049;DHT22;6085;49.452;8.502;2022-11-10T10:28:27;13.20;99.90
12049;DHT22;6085;49.452;8.502;2022-11-10T10:32:31;13.20;99.90
12049;DHT22;6085;49.452;8.502;2022-11-10T10:36:33;13.20;99.90
12049;DHT22;6085;49.452;8.502;2022-11-10T10:40:35;13.20;99.90
12049;DHT22;6085;49.452;8.502;2022-11-10T10:44:38;13.30;99.90
12049;DHT22;6085;49.452;8.502;2022-11-10T10:48:40;13.50;99.90
12049;DHT22;6085;49.452;8.502;2022-11-10T10:52:42;13.80;99.90
12049;DHT22;6085;49.452;8.502;2022-11-10T10:56:44;14.00;99.90
12049;DHT22;6085;49.452;8.502;2022-11-10T11:00:50;13.90;99.90
12049;DHT22;6085;49.452;8.502;2022-11-10T11:05:09;14.00;99.90
12049;DHT22;6085;49.452;8.502;2022-11-10T11:09:16;14.00;99.90
12049;DHT22;6085;49.452;8.502;2022-11-10T11:13:21;14.10;99.90
12049;DHT22;6085;49.452;8.502;2022-11-10T11:17:25;14.40;99.90
12049;DHT22;6085;49.452;8.502;2022-11-10T11:21:32;14.50;99.90
12049;DHT22;6085;49.452;8.502;2022-11-10T11:25:38;14.70;99.90
12049;DHT22;6085;49.452;8.502;2022-11-10T11:29:53;14.50;99.90
12049;DHT22;6085;49.452;8.502;2022-11-10T11:34:05;14.30;99.90
12049;DHT22;6085;49.452;8.502;2022-11-10T11:38:12;14.20;99.90
12049;DHT22;6085;49.452;8.502;2022-11-10T11:42:24;14.10;99.90
12049;DHT22;6085;49.452;8.502;2022-11-10T11:46:36;13.90;99.90
12049;DHT22;6085;49.452;8.502;2022-11-10T11:50:48;14.10;99.90
12049;DHT22;6085;49.452;8.502;2022-11-10T11:55:09;14.50;99.90
12049;DHT22;6085;49.452;8.502;2022-11-10T11:59:36;15.10;99.90
12049;DHT22;6085;49.452;8.502;2022-11-10T12:03:58;15.80;99.90
12049;DHT22;6085;49.452;8.502;2022-11-10T12:08:12;16.00;99.90
12049;DHT22;6085;49.452;8.502;2022-11-10T12:12:27;17.10;99.90
12049;DHT22;6085;49.452;8.502;2022-11-10T12:16:31;16.90;99.90
12049;DHT22;6085;49.452;8.502;2022-11-10T12:20:42;17.00;99.90
12049;DHT22;6085;49.452;8.502;2022-11-10T12:24:58;16.70;99.90
12049;DHT22;6085;49.452;8.502;2022-11-10T12:29:19;16.30;99.90
12049;DHT22;6085;49.452;8.502;2022-11-10T12:33:33;16.30;99.90
12049;DHT22;6085;49.452;8.502;2022-11-10T12:37:38;16.20;99.90
12049;DHT22;6085;49.452;8.502;2022-11-10T12:41:45;16.10;99.90
12049;DHT22;6085;49.452;8.502;2022-11-10T12:45:53;16.20;99.90
12049;DHT22;6085;49.452;8.502;2022-11-10T12:50:03;16.60;99.90
12049;DHT22;6085;49.452;8.502;2022-11-10T12:54:12;17.20;99.90
12049;DHT22;6085;49.452;8.502;2022-11-10T12:58:17;17.90;99.90
12049;DHT22;6085;49.452;8.502;2022-11-10T13:02:29;18.10;99.90
12049;DHT22;6085;49.452;8.502;2022-11-10T13:06:33;17.70;99.90
12049;DHT22;6085;49.452;8.502;2022-11-10T13:10:36;17.80;99.90
12049;DHT22;6085;49.452;8.502;2022-11-10T13:14:48;18.90;99.90
12049;DHT22;6085;49.452;8.502;2022-11-10T13:18:51;20.10;99.90
12049;DHT22;6085;49.452;8.502;2022-11-10T13:22:56;20.20;99.90
12049;DHT22;6085;49.452;8.502;2022-11-10T13:26:58;19.80;99.90
12049;DHT22;6085;49.452;8.502;2022-11-10T13:31:38;20.10;99.90
12049;DHT22;6085;49.452;8.502;2022-11-10T13:35:50;19.80;99.90
12049;DHT22;6085;49.452;8.502;2022-11-10T13:40:19;19.80;99.90
12049;DHT22;6085;49.452;8.502;2022-11-10T13:44:24;20.20;99.90
12049;DHT22;6085;49.452;8.502;2022-11-10T13:48:36;20.50;99.90
12049;DHT22;6085;49.452;8.502;2022-11-10T13:52:54;19.70;99.90
12049;DHT22;6085;49.452;8.502;2022-11-10T13:57:08;19.10;99.90
12049;DHT22;6085;49.452;8.502;2022-11-10T14:01:23;18.20;99.90
12049;DHT22;6085;49.452;8.502;2022-11-10T14:06:03;17.60;99.90
12049;DHT22;6085;49.452;8.502;2022-11-10T14:10:11;17.80;99.90
12049;DHT22;6085;49.452;8.502;2022-11-10T14:14:19;18.30;99.90
12049;DHT22;6085;49.452;8.502;2022-11-10T14:18:24;18.00;99.90
12049;DHT22;6085;49.452;8.502;2022-11-10T14:22:33;18.50;99.90
12049;DHT22;6085;49.452;8.502;2022-11-10T14:26:40;18.50;99.90
12049;DHT22;6085;49.452;8.502;2022-11-10T14:30:49;18.50;99.90
12049;DHT22;6085;49.452;8.502;2022-11-10T14:34:52;18.10;99.90
12049;DHT22;6085;49.452;8.502;2022-11-10T14:38:56;17.80;99.90
12049;DHT22;6085;49.452;8.502;2022-11-10T14:42:58;17.60;99.90
12049;DHT22;6085;49.452;8.502;2022-11-10T14:47:23;17.40;99.90
12049;DHT22;6085;49.452;8.502;2022-11-10T14:51:27;17.30;99.90
12049;DHT22;6085;49.452;8.502;2022-11-10T14:55:34;17.00;99.90
12049;DHT22;6085;49.452;8.502;2022-11-10T14:59:36;16.20;99.90
12049;DHT22;6085;49.452;8.502;2022-11-10T15:03:41;15.50;99.90
12049;DHT22;6085;49.452;8.502;2022-11-10T15:07:44;15.00;99.90
12049;DHT22;6085;49.452;8.502;2022-11-10T15:11:49;14.60;99.90
12049;DHT22;6085;49.452;8.502;2022-11-10T15:15:51;14.30;99.90
12049;DHT22;6085;49.452;8.502;2022-11-10T15:19:54;14.10;99.90
12049;DHT22;6085;49.452;8.502;2022-11-10T15:23:59;13.90;99.90
12049;DHT22;6085;49.452;8.502;2022-11-10T15:32:23;13.60;99.90
12049;DHT22;6085;49.452;8.502;2022-11-10T15:36:28;13.50;99.90
12049;DHT22;6085;49.452;8.502;2022-11-10T15:40:42;13.30;99.90
12049;DHT22;6085;49.452;8.502;2022-11-10T15:44:46;13.10;99.90
12049;DHT22;6085;49.452;8.502;2022-11-10T15:48:50;13.00;99.90
12049;DHT22;6085;49.452;8.502;2022-11-10T15:52:52;12.80;99.90
12049;DHT22;6085;49.452;8.502;2022-11-10T15:56:54;12.70;99.90
12049;DHT22;6085;49.452;8.502;2022-11-10T16:00:57;12.50;99.90
12049;DHT22;6085;49.452;8.502;2022-11-10T16:05:00;12.40;99.90
12049;DHT22;6085;49.452;8.502;2022-11-10T16:09:02;12.10;99.90
12049;DHT22;6085;49.452;8.502;2022-11-10T16:13:04;11.80;99.90
12049;DHT22;6085;49.452;8.502;2022-11-10T16:17:10;11.60;99.90
12049;DHT22;6085;49.452;8.502;2022-11-10T16:21:14;11.30;99.90
12049;DHT22;6085;49.452;8.502;2022-11-10T16:25:16;11.30;99.90
12049;DHT22;6085;49.452;8.502;2022-11-10T16:29:20;11.10;99.90
12049;DHT22;6085;49.452;8.502;2022-11-10T16:33:24;10.80;99.90
12049;DHT22;6085;49.452;8.502;2022-11-10T16:37:27;10.60;99.90
12049;DHT22;6085;49.452;8.502;2022-11-10T16:41:29;10.50;99.90
12049;DHT22;6085;49.452;8.502;2022-11-10T16:45:31;10.30;99.90
12049;DHT22;6085;49.452;8.502;2022-11-10T16:49:35;10.20;99.90
12049;DHT22;6085;49.452;8.502;2022-11-10T16:53:41;10.00;99.90
12049;DHT22;6085;49.452;8.502;2022-11-10T16:57:43;9.80;99.90
12049;DHT22;6085;49.452;8.502;2022-11-10T17:01:46;9.70;99.90
12049;DHT22;6085;49.452;8.502;2022-11-10T17:05:49;9.70;99.90
12049;DHT22;6085;49.452;8.502;2022-11-10T17:09:51;9.50;99.90
12049;DHT22;6085;49.452;8.502;2022-11-10T17:13:53;9.50;99.90
12049;DHT22;6085;49.452;8.502;2022-11-10T17:17:56;9.40;99.90
12049;DHT22;6085;49.452;8.502;2022-11-10T17:22:01;9.30;99.90
12049;DHT22;6085;49.452;8.502;2022-11-10T17:26:04;9.20;99.90
12049;DHT22;6085;49.452;8.502;2022-11-10T17:30:09;9.00;99.90
12049;DHT22;6085;49.452;8.502;2022-11-10T17:34:12;8.90;99.90
12049;DHT22;6085;49.452;8.502;2022-11-10T17:38:20;8.80;99.90
12049;DHT22;6085;49.452;8.502;2022-11-10T17:42:22;8.70;99.90
12049;DHT22;6085;49.452;8.502;2022-11-10T17:46:24;8.70;99.90
12049;DHT22;6085;49.452;8.502;2022-11-10T17:50:26;8.70;99.90
12049;DHT22;6085;49.452;8.502;2022-11-10T17:54:29;8.60;99.90
12049;DHT22;6085;49.452;8.502;2022-11-10T17:58:31;8.50;99.90
12049;DHT22;6085;49.452;8.502;2022-11-10T18:02:33;8.40;99.90
12049;DHT22;6085;49.452;8.502;2022-11-10T18:06:35;8.40;99.90
12049;DHT22;6085;49.452;8.502;2022-11-10T18:10:41;8.30;99.90
12049;DHT22;6085;49.452;8.502;2022-11-10T18:14:43;8.20;99.90
12049;DHT22;6085;49.452;8.502;2022-11-10T18:18:45;8.10;99.90
12049;DHT22;6085;49.452;8.502;2022-11-10T18:22:47;8.00;99.90
12049;DHT22;6085;49.452;8.502;2022-11-10T18:26:50;7.90;99.90
12049;DHT22;6085;49.452;8.502;2022-11-10T18:30:52;7.90;99.90
12049;DHT22;6085;49.452;8.502;2022-11-10T18:34:54;7.90;99.90
12049;DHT22;6085;49.452;8.502;2022-11-10T18:38:56;8.00;99.90
12049;DHT22;6085;49.452;8.502;2022-11-10T18:42:59;7.90;99.90
12049;DHT22;6085;49.452;8.502;2022-11-10T18:47:01;7.90;99.90
12049;DHT22;6085;49.452;8.502;2022-11-10T18:51:04;7.90;99.90
12049;DHT22;6085;49.452;8.502;2022-11-10T18:55:07;8.00;99.90
12049;DHT22;6085;49.452;8.502;2022-11-10T18:59:10;8.00;99.90
12049;DHT22;6085;49.452;8.502;2022-11-10T19:03:12;7.90;99.90
12049;DHT22;6085;49.452;8.502;2022-11-10T19:07:14;7.80;99.90
12049;DHT22;6085;49.452;8.502;2022-11-10T19:11:17;7.80;99.90
12049;DHT22;6085;49.452;8.502;2022-11-10T19:15:21;7.70;99.90
12049;DHT22;6085;49.452;8.502;2022-11-10T19:19:22;7.70;99.90
12049;DHT22;6085;49.452;8.502;2022-11-10T19:23:24;7.70;99.90
12049;DHT22;6085;49.452;8.502;2022-11-10T19:27:26;7.70;99.90
12049;DHT22;6085;49.452;8.502;2022-11-10T19:31:29;7.60;99.90
12049;DHT22;6085;49.452;8.502;2022-11-10T19:35:31;7.60;99.90
12049;DHT22;6085;49.452;8.502;2022-11-10T19:39:33;7.60;99.90
12049;DHT22;6085;49.452;8.502;2022-11-10T19:43:35;7.60;99.90
12049;DHT22;6085;49.452;8.502;2022-11-10T19:47:39;7.50;99.90
12049;DHT22;6085;49.452;8.502;2022-11-10T19:51:40;7.40;99.90
12049;DHT22;6085;49.452;8.502;2022-11-10T19:55:42;7.40;99.90
12049;DHT22;6085;49.452;8.502;2022-11-10T19:59:44;7.30;99.90
12049;DHT22;6085;49.452;8.502;2022-11-10T20:03:47;7.20;99.90
12049;DHT22;6085;49.452;8.502;2022-11-10T20:07:49;7.20;99.90
12049;DHT22;6085;49.452;8.502;2022-11-10T20:12:08;7.10;99.90
12049;DHT22;6085;49.452;8.502;2022-11-10T20:16:11;7.00;99.90
12049;DHT22;6085;49.452;8.502;2022-11-10T20:20:15;7.00;99.90
12049;DHT22;6085;49.452;8.502;2022-11-10T20:24:16;6.90;99.90
12049;DHT22;6085;49.452;8.502;2022-11-10T20:28:19;6.80;99.90
12049;DHT22;6085;49.452;8.502;2022-11-10T20:32:21;6.80;99.90
12049;DHT22;6085;49.452;8.502;2022-11-10T20:36:25;6.70;99.90
12049;DHT22;6085;49.452;8.502;2022-11-10T20:40:27;6.70;99.90
12049;DHT22;6085;49.452;8.502;2022-11-10T20:44:29;6.60;99.90
12049;DHT22;6085;49.452;8.502;2022-11-10T20:48:32;6.60;99.90
12049;DHT22;6085;49.452;8.502;2022-11-10T20:52:35;6.60;99.90
12049;DHT22;6085;49.452;8.502;2022-11-10T20:56:37;6.60;99.90
12049;DHT22;6085;49.452;8.502;2022-11-10T21:00:41;6.50;99.90
12049;DHT22;6085;49.452;8.502;2022-11-10T21:04:43;6.50;99.90
12049;DHT22;6085;49.452;8.502;2022-11-10T21:08:47;6.40;99.90
12049;DHT22;6085;49.452;8.502;2022-11-10T21:12:48;6.40;99.90
12049;DHT22;6085;49.452;8.502;2022-11-10T21:16:50;6.30;99.90
12049;DHT22;6085;49.452;8.502;2022-11-10T21:20:52;6.20;99.90
12049;DHT22;6085;49.452;8.502;2022-11-10T21:24:56;6.20;99.90
12049;DHT22;6085;49.452;8.502;2022-11-10T21:28:58;6.20;99.90
12049;DHT22;6085;49.452;8.502;2022-11-10T21:33:00;6.20;99.90
12049;DHT22;6085;49.452;8.502;2022-11-10T21:37:02;6.20;99.90
12049;DHT22;6085;49.452;8.502;2022-11-10T21:41:05;6.10;99.90
12049;DHT22;6085;49.452;8.502;2022-11-10T21:45:07;6.10;99.90
12049;DHT22;6085;49.452;8.502;2022-11-10T21:49:09;6.10;99.90
12049;DHT22;6085;49.452;8.502;2022-11-10T21:53:11;6.10;99.90
12049;DHT22;6085;49.452;8.502;2022-11-10T21:57:15;6.00;99.90
12049;DHT22;6085;49.452;8.502;2022-11-10T22:01:17;5.90;99.90
12049;DHT22;6085;49.452;8.502;2022-11-10T22:05:19;5.90;99.90
12049;DHT22;6085;49.452;8.502;2022-11-10T22:09:21;5.90;99.90
12049;DHT22;6085;49.452;8.502;2022-11-10T22:13:38;5.80;99.90
12049;DHT22;6085;49.452;8.502;2022-11-10T22:17:59;5.80;99.90
12049;DHT22;6085;49.452;8.502;2022-11-10T22:22:18;5.80;99.90
12049;DHT22;6085;49.452;8.502;2022-11-10T22:26:20;5.70;99.90
12049;DHT22;6085;49.452;8.502;2022-11-10T22:30:23;5.70;99.90
12049;DHT22;6085;49.452;8.502;2022-11-10T22:34:25;5.60;99.90
12049;DHT22;6085;49.452;8.502;2022-11-10T22:38:27;5.50;99.90
12049;DHT22;6085;49.452;8.502;2022-11-10T22:42:29;5.50;99.90
12049;DHT22;6085;49.452;8.502;2022-11-10T22:46:50;5.50;99.90
12049;DHT22;6085;49.452;8.502;2022-11-10T22:50:53;5.40;99.90
12049;DHT22;6085;49.452;8.502;2022-11-10T22:54:54;5.30;99.90
12049;DHT22;6085;49.452;8.502;2022-11-10T22:58:57;5.30;99.90
12049;DHT22;6085;49.452;8.502;2022-11-10T23:03:01;5.30;99.90
12049;DHT22;6085;49.452;8.502;2022-11-10T23:07:03;5.20;99.90
12049;DHT22;6085;49.452;8.502;2022-11-10T23:11:06;5.20;99.90
12049;DHT22;6085;49.452;8.502;2022-11-10T23:15:09;5.20;99.90
12049;DHT22;6085;49.452;8.502;2022-11-10T23:19:12;5.20;99.90
12049;DHT22;6085;49.452;8.502;2022-11-10T23:23:14;5.20;99.90
12049;DHT22;6085;49.452;8.502;2022-11-10T23:27:16;5.20;99.90
12049;DHT22;6085;49.452;8.502;2022-11-10T23:31:20;5.10;99.90
12049;DHT22;6085;49.452;8.502;2022-11-10T23:35:24;5.10;99.90
12049;DHT22;6085;49.452;8.502;2022-11-10T23:39:26;5.00;99.90
12049;DHT22;6085;49.452;8.502;2022-11-10T23:43:28;5.00;99.90
12049;DHT22;6085;49.452;8.502;2022-11-10T23:47:30;5.00;99.90
12049;DHT22;6085;49.452;8.502;2022-11-10T23:51:33;5.00;99.90
12049;DHT22;6085;49.452;8.502;2022-11-10T23:55:35;5.00;99.90
12049;DHT22;6085;49.452;8.502;2022-11-10T23:59:37;5.00;99.90
